Flight Track Log - Related Links

Times and Time Zones

All times are in EDT time to prevent confusion due to time zone crossing. See the UAL3732 flight status page for this flight to view local times or setup timezone preferences in your user account.

Time Position Orientation Groundspeed Altitude Reporting Facility
EDT Latitude Longitude Course Direction KTS MPH feet Rate Location/Type
Mon 12:56:10 PM 41.9333 -87.9000 114° Southeast 164 189 1,800  Level Chicago TRACON
Mon 12:57:04 PM 41.9167 -87.8500 114° Southeast 209 241 3,600 1,684 Climbing Chicago TRACON
Mon 12:58:04 PM 41.9167 -87.7667 90° East 258 297 5,000 2,059 Climbing Chicago TRACON
Mon 01:00:28 PM 41.9325 -87.5444 84° East 266 306 10,600 2,283 Climbing Chicago Center
Mon 01:01:29 PM 41.9353 -87.4317 88° East 297 342 12,800 2,390 Climbing Chicago Center
Mon 01:02:31 PM 41.9386 -87.3158 88° East 310 357 15,500 1,742 Climbing Chicago Center
Mon 01:03:33 PM 41.9419 -87.1875 88° East 340 391 16,400 1,645 Climbing Chicago Center
Mon 01:04:35 PM 41.9450 -87.0222 89° East 365 420 18,900 1,984 Climbing Chicago Center
Mon 01:05:37 PM 41.9469 -86.8822 89° East 374 430 20,500 1,171 Climbing Chicago Center
Mon 01:06:38 PM 41.9500 -86.7347 88° East 391 450 21,300 829 Climbing Chicago Center
Mon 01:07:40 PM 41.9508 -86.5583 90° East 434 499 22,200 919 Climbing Chicago Center
Mon 01:08:42 PM 41.9536 -86.3933 89° East 442 509 23,200 968 Climbing Chicago Center
Mon 01:09:44 PM 41.9536 -86.2231 90° East 452 520 24,200 1,016 Climbing Chicago Center
Mon 01:10:46 PM 41.9403 -86.0528 96° East 458 527 25,300 1,016 Climbing Chicago Center
Mon 01:11:48 PM 41.9242 -85.8806 97° East 463 533 26,300 976 Climbing Chicago Center
Mon 01:12:49 PM 41.9078 -85.7086 97° East 463 533 27,300 976 Climbing Chicago Center
Mon 01:13:51 PM 41.8917 -85.5356 97° East 463 533 28,300 968 Climbing Chicago Center
Mon 01:14:53 PM 41.8756 -85.3617 97° East 464 534 29,300 1,024 Climbing Chicago Center
Mon 01:15:13 PM 41.8714 -85.2936 95° East 464 534 29,700 968 Climbing Cleveland Center
Mon 01:15:55 PM 41.8583 -85.1886 99° East 463 533 30,300 1,000 Climbing Chicago Center
Mon 01:16:13 PM 41.8533 -85.1222 96° East 458 527 30,700 1,154 Climbing Cleveland Center
Mon 01:17:13 PM 41.8333 -84.9394 98° East 458 527 31,800 1,050 Climbing Cleveland Center
Mon 01:18:13 PM 41.8169 -84.7683 97° East 453 521 32,800 1,000 Climbing Cleveland Center
Mon 01:19:13 PM 41.7997 -84.6028 98° East 453 521 33,800 1,000 Climbing Cleveland Center
Mon 01:20:13 PM 41.7806 -84.4344 99° East 448 516 34,800 1,000 Climbing Cleveland Center
Mon 01:21:13 PM 41.7778 -84.2700 91° East 448 516 35,800 1,050 Climbing Cleveland Center
Mon 01:22:13 PM 41.7744 -84.1083 92° East 443 510 36,900 600 Climbing Cleveland Center
Mon 01:23:13 PM 41.7731 -83.9467 91° East 443 510 37,000 50 Climbing Cleveland Center
Mon 01:24:13 PM 41.7736 -83.7797 90° East 443 510 37,000  Level Cleveland Center
Mon 01:25:13 PM 41.7700 -83.6097 92° East 443 510 37,000  Level Cleveland Center
Mon 01:26:13 PM 41.7594 -83.4475 95° East 443 510 37,000  Level Cleveland Center
Mon 01:27:13 PM 41.7425 -83.2825 98° East 443 510 37,000  Level Cleveland Center
Mon 01:28:13 PM 41.7086 -83.1256 106° East 443 510 37,000  Level Cleveland Center
Mon 01:29:13 PM 41.6639 -82.9764 112° Southeast 437 503 37,000  Level Cleveland Center
Mon 01:30:13 PM 41.6233 -82.8247 110° East 432 497 37,000  Level Cleveland Center
Mon 01:31:13 PM 41.5783 -82.6706 111° Southeast 439 505 37,000  Level Cleveland Center
Mon 01:32:13 PM 41.5308 -82.5136 112° Southeast 447 514 37,000  Level Cleveland Center
Mon 01:33:13 PM 41.4875 -82.3656 111° Southeast 459 528 37,000  Level Cleveland Center
Mon 01:34:13 PM 41.4378 -82.1978 112° Southeast 471 542 37,000  Level Cleveland Center
Mon 01:35:13 PM 41.3881 -82.0333 112° Southeast 476 548 37,000  Level Cleveland Center
Mon 01:36:13 PM 41.3400 -81.8664 111° Southeast 476 548 37,000  Level Cleveland Center
Mon 01:37:13 PM 41.2917 -81.6997 111° Southeast 476 548 37,000  Level Cleveland Center
Mon 01:38:13 PM 41.2431 -81.5386 112° Southeast 476 548 37,000 50 Level Cleveland Center
Mon 01:39:13 PM 41.1817 -81.3694 116° Southeast 470 541 37,100 300 Climbing Cleveland Center
Mon 01:40:13 PM 41.0969 -81.2692 138° Southeast 447 514 37,600 450 Climbing Cleveland Center
Mon 01:41:13 PM 40.9847 -81.2294 165° South 429 494 38,000 200 Climbing Cleveland Center
Mon 01:42:13 PM 40.8739 -81.2642 193° South 382 440 38,000  Level Cleveland Center
Mon 01:43:13 PM 40.8169 -81.3814 237° Southwest 366 421 38,000  Level Cleveland Center
Mon 01:44:13 PM 40.8386 -81.5272 281° West 357 411 38,000  Level Cleveland Center
Mon 01:45:13 PM 40.9358 -81.6358 320° Northwest 357 411 38,000  Level Cleveland Center
Mon 01:46:13 PM 41.0669 -81.6381 359° North 374 430 38,000  Level Cleveland Center
Mon 01:47:13 PM 41.1742 -81.5458 33° Northeast 401 461 38,000  Level Cleveland Center
Mon 01:48:13 PM 41.2297 -81.3756 67° East 395 455 38,000 -50 Level Cleveland Center
Mon 01:49:13 PM 41.2161 -81.2014 96° East 403 464 37,900 -333 Descending Cleveland Center
Mon 01:51:13 PM 41.1089 -80.9219 117° Southeast 431 496 37,000 -300 Descending Cleveland Center
Mon 01:52:13 PM 41.0508 -80.7731 117° Southeast 443 510 37,000  Level Cleveland Center
Mon 01:53:13 PM 40.9906 -80.6217 118° Southeast 455 524 37,000  Level Cleveland Center
Mon 01:54:13 PM 40.9300 -80.4706 118° Southeast 460 529 37,000  Level Cleveland Center
Mon 01:55:13 PM 40.8714 -80.3194 117° Southeast 460 529 37,000  Level Cleveland Center
Mon 01:56:13 PM 40.7961 -80.1936 128° Southeast 455 524 37,000  Level Cleveland Center
Mon 01:57:13 PM 40.6978 -80.1094 147° Southeast 425 489 37,000  Level Cleveland Center
Mon 01:58:13 PM 40.6017 -80.0308 148° Southeast 420 483 37,000 -400 Level Cleveland Center
Mon 01:59:13 PM 40.4989 -79.9386 146° Southeast 415 478 36,200 -1,000 Descending Cleveland Center
Mon 02:00:13 PM 40.4047 -79.8633 149° Southeast 410 472 35,000 -600 Descending Cleveland Center
Mon 02:01:13 PM 40.3186 -79.7661 139° Southeast 405 466 35,000  Level Cleveland Center
Mon 02:02:13 PM 40.2714 -79.6144 112° Southeast 414 476 35,000  Level Cleveland Center
Mon 02:03:13 PM 40.2742 -79.4456 89° East 414 476 35,000  Level Cleveland Center
Mon 02:04:13 PM 40.2831 -79.2986 85° East 431 496 35,000  Level Cleveland Center
Mon 02:05:13 PM 40.2975 -79.1267 84° East 446 513 35,000  Level Cleveland Center
Mon 02:06:13 PM 40.3078 -78.9606 85° East 459 528 35,000  Level Cleveland Center
Mon 02:07:13 PM 40.3158 -78.7886 86° East 464 534 35,000  Level Cleveland Center
Mon 02:08:13 PM 40.3172 -78.6225 89° East 459 528 35,000 -1,825 Level Cleveland Center
Mon 02:10:27 PM 40.3128 -78.2436 91° East 456 525 29,100 -2,598 Descending New York Center
Mon 02:11:27 PM 40.3119 -78.0883 90° East 434 499 26,600 -2,033 Descending New York Center
Mon 02:12:28 PM 40.3103 -77.9439 91° East 414 476 25,000 -1,240 Descending New York Center
Mon 02:13:28 PM 40.3392 -77.8106 74° East 382 440 24,100 -1,339 Descending New York Center
Mon 02:14:29 PM 40.3775 -77.6919 67° East 369 425 22,300 -1,785 Descending New York Center
Mon 02:15:29 PM 40.4075 -77.5694 72° East 356 410 20,500 -1,835 Descending New York Center
Mon 02:16:30 PM 40.3372 -77.4861 138° Southeast 286 329 18,600 -1,525 Descending New York Center
Mon 02:17:27 PM 40.3206 -77.3783 101° East 313 360 17,500 -814 Descending New York Center
Mon 02:18:28 PM 40.3131 -77.2497 94° East 326 375 17,000 -246 Descending New York Center
Mon 02:19:29 PM 40.3064 -77.1428 95° East 326 375 17,000  Level New York Center
Mon 02:20:29 PM 40.2881 -77.0133 100° East 326 375 17,000  Level New York Center
Mon 02:21:27 PM 40.2628 -76.8994 106° East 331 381 17,000 -857 Level New York Center
Mon 02:22:28 PM 40.2372 -76.7883 107° East 331 381 15,300 -1,721 Descending New York Center
Mon 02:23:29 PM 40.2114 -76.6800 107° East 326 375 13,500 -1,140 Descending New York Center
Mon 02:24:29 PM 40.1892 -76.5831 107° East 314 361 13,000 -252 Descending New York Center
Mon 02:25:28 PM 40.1614 -76.4667 107° East 309 356 13,000 -48 Level New York Center
Mon 02:26:35 PM 40.1328 -76.3422 107° East 305 351 12,900 -414 Descending FAA TRACON SMA TRACON (SMA)
Mon 02:26:55 PM 40.1247 -76.3114 109° East 305 351 12,400 -1,610 Descending FAA TRACON SMA TRACON (SMA)
Mon 02:27:16 PM 40.1194 -76.2769 101° East 302 348 11,800 -1,902 Descending FAA TRACON SMA TRACON (SMA)
Mon 02:27:36 PM 40.1169 -76.2356 95° East 293 337 11,100 -1,846 Descending FAA TRACON SMA TRACON (SMA)
Mon 02:27:55 PM 40.1156 -76.2044 93° East 290 334 10,600 -1,350 Descending FAA TRACON SMA TRACON (SMA)
Mon 02:28:16 PM 40.1164 -76.1714 88° East 294 338 10,200 -1,317 Descending FAA TRACON SMA TRACON (SMA)
Mon 02:28:36 PM 40.1094 -76.1389 106° East 289 333 9,700 -1,800 Descending FAA TRACON SMA TRACON (SMA)
Mon 02:28:56 PM 40.1072 -76.0994 94° East 285 328 9,000 -2,000 Descending FAA TRACON SMA TRACON (SMA)
Mon 02:29:15 PM 40.1050 -76.0683 95° East 283 326 8,400 -1,350 Descending FAA TRACON SMA TRACON (SMA)
Mon 02:29:36 PM 40.1028 -76.0372 95° East 279 321 8,100 -600 Descending FAA TRACON SMA TRACON (SMA)
Mon 02:29:55 PM 40.1000 -76.0003 96° East 272 313 8,000 -150 Descending FAA TRACON SMA TRACON (SMA)
Mon 02:30:16 PM 40.0983 -75.9731 95° East 271 312 8,000  Level FAA TRACON SMA TRACON (SMA)
Mon 02:30:36 PM 40.0950 -75.9350 97° East 272 313 8,000  Level FAA TRACON SMA TRACON (SMA)
Mon 02:30:56 PM 40.0931 -75.9019 94° East 272 313 8,000  Level FAA TRACON SMA TRACON (SMA)
Mon 02:31:16 PM 40.0911 -75.8722 95° East 270 311 8,000 -300 Level FAA TRACON SMA TRACON (SMA)
Mon 02:31:36 PM 40.0892 -75.8431 95° East 268 308 7,800 -1,200 Descending FAA TRACON SMA TRACON (SMA)
Mon 02:31:56 PM 40.0869 -75.8056 94° East 266 306 7,200 -1,200 Descending FAA TRACON SMA TRACON (SMA)
Mon 02:32:16 PM 40.0844 -75.7764 96° East 264 304 7,000 -300 Descending FAA TRACON SMA TRACON (SMA)
Mon 02:32:36 PM 40.0819 -75.7417 95° East 258 297 7,000 -600 Level FAA TRACON SMA TRACON (SMA)
Mon 02:32:56 PM 40.0839 -75.7128 85° East 260 299 6,600 -1,500 Descending FAA TRACON SMA TRACON (SMA)
Mon 02:33:16 PM 40.0853 -75.6861 86° East 247 284 6,000 -1,650 Descending FAA TRACON SMA TRACON (SMA)
Mon 02:33:36 PM 40.0869 -75.6589 85° East 245 282 5,500 -1,650 Descending FAA TRACON SMA TRACON (SMA)
Mon 02:33:56 PM 40.0881 -75.6250 88° East 245 282 4,900 -1,650 Descending FAA TRACON SMA TRACON (SMA)
Mon 02:34:16 PM 40.0886 -75.5969 89° East 247 284 4,400 -1,200 Descending FAA TRACON SMA TRACON (SMA)
Mon 02:34:36 PM 40.0886 -75.5692 90° East 247 284 4,100 -600 Descending FAA TRACON SMA TRACON (SMA)
Mon 02:34:56 PM 40.0897 -75.5342 88° East 249 287 4,000 -150 Descending FAA TRACON SMA TRACON (SMA)
Mon 02:35:16 PM 40.0906 -75.5064 88° East 249 287 4,000  Level FAA TRACON SMA TRACON (SMA)
Mon 02:35:36 PM 40.0850 -75.4806 106° East 246 283 4,000  Level FAA TRACON SMA TRACON (SMA)
Mon 02:35:56 PM 40.0683 -75.4536 129° Southeast 252 290 4,000  Level FAA TRACON SMA TRACON (SMA)
Mon 02:36:16 PM 40.0544 -75.4331 131° Southeast 256 295 4,000  Level FAA TRACON SMA TRACON (SMA)
Mon 02:36:37 PM 40.0392 -75.4117 133° Southeast 255 293 4,000  Level FAA TRACON SMA TRACON (SMA)
Mon 02:36:56 PM 40.0142 -75.3981 157° South 255 293 4,000  Level FAA TRACON SMA TRACON (SMA)
Mon 02:37:15 PM 39.9931 -75.3886 161° South 257 296 4,000  Level FAA TRACON SMA TRACON (SMA)
Mon 02:37:35 PM 39.9733 -75.3800 161° South 250 288 4,000  Level FAA TRACON SMA TRACON (SMA)
Mon 02:37:55 PM 39.9522 -75.3703 161° South 253 291 4,000  Level FAA TRACON SMA TRACON (SMA)
Mon 02:38:16 PM 39.9275 -75.3583 160° South 240 276 4,000  Level FAA TRACON SMA TRACON (SMA)
Mon 02:38:35 PM 39.9108 -75.3511 162° South 206 237 4,000  Level FAA TRACON SMA TRACON (SMA)
Mon 02:38:56 PM 39.8950 -75.3442 161° South 191 220 4,000  Level FAA TRACON SMA TRACON (SMA)
Mon 02:39:15 PM 39.8775 -75.3381 165° South 201 231 4,000  Level FAA TRACON SMA TRACON (SMA)
Mon 02:39:35 PM 39.8600 -75.3294 159° South 191 220 4,000 -150 Level FAA TRACON SMA TRACON (SMA)
Mon 02:39:55 PM 39.8408 -75.3211 162° South 190 219 3,900 -732 Descending FAA TRACON SMA TRACON (SMA)
Mon 02:40:16 PM 39.8258 -75.3136 159° South 190 219 3,500 -1,171 Descending FAA TRACON SMA TRACON (SMA)
Mon 02:40:36 PM 39.8067 -75.3053 162° South 189 217 3,100 -750 Descending FAA TRACON SMA TRACON (SMA)
Mon 02:40:56 PM 39.7922 -75.2989 161° South 190 219 3,000 -150 Descending FAA TRACON SMA TRACON (SMA)
Mon 02:41:16 PM 39.7758 -75.2911 160° South 191 220 3,000  Level FAA TRACON SMA TRACON (SMA)
Mon 02:41:36 PM 39.7567 -75.2825 161° South 190 219 3,000  Level FAA TRACON SMA TRACON (SMA)
Mon 02:41:56 PM 39.7450 -75.2703 141° Southeast 192 221 3,000 -300 Level FAA TRACON SMA TRACON (SMA)
Mon 02:42:16 PM 39.7444 -75.2500 92° East 166 191 2,800 -750 Descending FAA TRACON SMA TRACON (SMA)
Mon 02:42:36 PM 39.7486 -75.2272 77° East 182 209 2,500 -900 Descending FAA TRACON SMA TRACON (SMA)
Mon 02:42:56 PM 39.7544 -75.2092 67° East 177 204 2,200 -769 Descending FAA TRACON SMA TRACON (SMA)
Mon 02:43:15 PM 39.7656 -75.1964 41° Northeast 178 205 2,000 -308 Descending FAA TRACON SMA TRACON (SMA)
Mon 02:43:35 PM 39.7792 -75.1900 20° North 174 200 2,000 -150 Level FAA TRACON SMA TRACON (SMA)
Mon 02:43:55 PM 39.7975 -75.1928 353° North 178 205 1,900 -450 Descending FAA TRACON SMA TRACON (SMA)
Mon 02:44:15 PM 39.8114 -75.2006 337° Northwest 170 196 1,700 -900 Descending FAA TRACON SMA TRACON (SMA)
Mon 02:44:35 PM 39.8247 -75.2056 344° North 166 191 1,300 -1,350 Descending FAA TRACON SMA TRACON (SMA)
Mon 02:44:55 PM 39.8403 -75.2131 340° North 153 176 800 -1,200 Descending FAA TRACON SMA TRACON (SMA)
Mon 02:45:15 PM 39.8519 -75.2186 340° North 149 171 500 -900 Descending FAA TRACON SMA TRACON (SMA)
Mon 02:45:35 PM 39.8667 -75.2256 340° North 151 174 200 -600 Descending FAA TRACON SMA TRACON (SMA)
Mon 02:45:55 PM 39.8694 -75.2267 343° North 122 140 100 -100 Descending FAA TRACON SMA TRACON (SMA)
Mon 02:46:35 PM 39.8694 -75.2267 30° Northeast 122 140 100  Level FAA TRACON SMA TRACON (SMA)
Mon 02:48:00 PM 39.8667 -75.2333 270° West  Level FlightAware Approximate

Login

Don't have an account? Register now (free) for customized features, flight alerts, and more!